sensor_id;sensor_type;location;lat;lon;timestamp;P1;durP1;ratioP1;P2;durP2;ratioP2
48203;SDS011;33994;50.998;5.864;2023-03-01T00:00:19;16.17;;;8.00;;
48203;SDS011;33994;50.998;5.864;2023-03-01T00:03:22;15.43;;;8.38;;
48203;SDS011;33994;50.998;5.864;2023-03-01T00:06:26;15.85;;;8.32;;
48203;SDS011;33994;50.998;5.864;2023-03-01T00:09:29;16.00;;;7.88;;
48203;SDS011;33994;50.998;5.864;2023-03-01T00:12:34;20.40;;;8.00;;
48203;SDS011;33994;50.998;5.864;2023-03-01T00:15:39;15.82;;;8.52;;
48203;SDS011;33994;50.998;5.864;2023-03-01T00:18:43;17.35;;;8.45;;
48203;SDS011;33994;50.998;5.864;2023-03-01T00:21:47;19.42;;;8.48;;
48203;SDS011;33994;50.998;5.864;2023-03-01T00:24:50;16.88;;;8.75;;
48203;SDS011;33994;50.998;5.864;2023-03-01T00:27:54;15.35;;;8.77;;
48203;SDS011;33994;50.998;5.864;2023-03-01T00:31:02;15.15;;;8.57;;
48203;SDS011;33994;50.998;5.864;2023-03-01T00:34:05;11.10;;;6.55;;
48203;SDS011;33994;50.998;5.864;2023-03-01T00:37:08;19.80;;;9.38;;
48203;SDS011;33994;50.998;5.864;2023-03-01T00:40:12;20.17;;;10.30;;
48203;SDS011;33994;50.998;5.864;2023-03-01T00:43:17;18.02;;;9.55;;
48203;SDS011;33994;50.998;5.864;2023-03-01T00:46:20;15.82;;;9.20;;
48203;SDS011;33994;50.998;5.864;2023-03-01T00:49:25;19.38;;;9.27;;
48203;SDS011;33994;50.998;5.864;2023-03-01T00:52:28;18.15;;;8.10;;
48203;SDS011;33994;50.998;5.864;2023-03-01T00:55:31;13.98;;;8.32;;
48203;SDS011;33994;50.998;5.864;2023-03-01T00:58:36;17.92;;;8.60;;
48203;SDS011;33994;50.998;5.864;2023-03-01T01:01:39;15.88;;;8.68;;
48203;SDS011;33994;50.998;5.864;2023-03-01T01:04:42;15.13;;;8.65;;
48203;SDS011;33994;50.998;5.864;2023-03-01T01:07:45;17.40;;;8.95;;
48203;SDS011;33994;50.998;5.864;2023-03-01T01:10:48;16.73;;;8.68;;
48203;SDS011;33994;50.998;5.864;2023-03-01T01:13:53;15.63;;;8.70;;
48203;SDS011;33994;50.998;5.864;2023-03-01T01:16:56;16.65;;;9.45;;
48203;SDS011;33994;50.998;5.864;2023-03-01T01:19:59;15.65;;;8.52;;
48203;SDS011;33994;50.998;5.864;2023-03-01T01:23:02;15.25;;;8.13;;
48203;SDS011;33994;50.998;5.864;2023-03-01T01:26:09;15.68;;;8.43;;
48203;SDS011;33994;50.998;5.864;2023-03-01T01:29:15;14.02;;;8.27;;
48203;SDS011;33994;50.998;5.864;2023-03-01T01:32:18;15.40;;;8.85;;
48203;SDS011;33994;50.998;5.864;2023-03-01T01:35:21;18.92;;;9.10;;
48203;SDS011;33994;50.998;5.864;2023-03-01T01:38:24;18.00;;;9.13;;
48203;SDS011;33994;50.998;5.864;2023-03-01T01:41:28;15.55;;;9.20;;
48203;SDS011;33994;50.998;5.864;2023-03-01T01:44:33;15.88;;;8.30;;
48203;SDS011;33994;50.998;5.864;2023-03-01T01:47:37;15.00;;;8.55;;
48203;SDS011;33994;50.998;5.864;2023-03-01T01:50:40;16.45;;;8.85;;
48203;SDS011;33994;50.998;5.864;2023-03-01T01:53:43;19.55;;;8.77;;
48203;SDS011;33994;50.998;5.864;2023-03-01T01:56:49;17.20;;;9.32;;
48203;SDS011;33994;50.998;5.864;2023-03-01T01:59:57;17.70;;;9.18;;
48203;SDS011;33994;50.998;5.864;2023-03-01T02:03:04;18.73;;;9.60;;
48203;SDS011;33994;50.998;5.864;2023-03-01T02:06:13;15.15;;;9.25;;
48203;SDS011;33994;50.998;5.864;2023-03-01T02:09:22;22.80;;;9.43;;
48203;SDS011;33994;50.998;5.864;2023-03-01T02:12:26;16.27;;;9.13;;
48203;SDS011;33994;50.998;5.864;2023-03-01T02:15:32;16.67;;;9.35;;
48203;SDS011;33994;50.998;5.864;2023-03-01T02:18:37;20.38;;;10.45;;
48203;SDS011;33994;50.998;5.864;2023-03-01T02:21:42;21.25;;;9.70;;
48203;SDS011;33994;50.998;5.864;2023-03-01T02:24:56;15.85;;;9.02;;
48203;SDS011;33994;50.998;5.864;2023-03-01T02:31:23;17.95;;;9.70;;
48203;SDS011;33994;50.998;5.864;2023-03-01T02:34:27;18.55;;;9.88;;
48203;SDS011;33994;50.998;5.864;2023-03-01T02:37:30;20.50;;;9.80;;
48203;SDS011;33994;50.998;5.864;2023-03-01T02:40:34;17.08;;;11.15;;
48203;SDS011;33994;50.998;5.864;2023-03-01T02:43:41;17.80;;;9.80;;
48203;SDS011;33994;50.998;5.864;2023-03-01T02:46:46;21.27;;;9.98;;
48203;SDS011;33994;50.998;5.864;2023-03-01T02:49:51;18.95;;;9.43;;
48203;SDS011;33994;50.998;5.864;2023-03-01T02:52:55;17.55;;;10.65;;
48203;SDS011;33994;50.998;5.864;2023-03-01T02:56:04;17.20;;;10.05;;
48203;SDS011;33994;50.998;5.864;2023-03-01T02:59:09;19.42;;;10.52;;
48203;SDS011;33994;50.998;5.864;2023-03-01T03:02:21;22.50;;;10.77;;
48203;SDS011;33994;50.998;5.864;2023-03-01T03:05:26;23.85;;;10.98;;
48203;SDS011;33994;50.998;5.864;2023-03-01T03:08:31;19.52;;;10.82;;
48203;SDS011;33994;50.998;5.864;2023-03-01T03:11:34;22.70;;;10.70;;
48203;SDS011;33994;50.998;5.864;2023-03-01T03:14:39;14.23;;;9.48;;
48203;SDS011;33994;50.998;5.864;2023-03-01T03:17:42;20.77;;;10.18;;
48203;SDS011;33994;50.998;5.864;2023-03-01T03:20:45;19.17;;;10.00;;
48203;SDS011;33994;50.998;5.864;2023-03-01T03:23:48;16.73;;;10.00;;
48203;SDS011;33994;50.998;5.864;2023-03-01T03:26:52;17.58;;;10.52;;
48203;SDS011;33994;50.998;5.864;2023-03-01T03:29:56;16.48;;;10.20;;
48203;SDS011;33994;50.998;5.864;2023-03-01T03:32:59;18.65;;;10.40;;
48203;SDS011;33994;50.998;5.864;2023-03-01T03:36:03;24.98;;;11.73;;
48203;SDS011;33994;50.998;5.864;2023-03-01T03:39:07;17.65;;;10.15;;
48203;SDS011;33994;50.998;5.864;2023-03-01T03:42:10;20.90;;;11.07;;
48203;SDS011;33994;50.998;5.864;2023-03-01T03:45:14;19.90;;;10.23;;
48203;SDS011;33994;50.998;5.864;2023-03-01T03:48:18;21.83;;;10.27;;
48203;SDS011;33994;50.998;5.864;2023-03-01T03:51:21;18.95;;;10.80;;
48203;SDS011;33994;50.998;5.864;2023-03-01T03:54:24;16.20;;;9.55;;
48203;SDS011;33994;50.998;5.864;2023-03-01T03:57:27;19.77;;;10.30;;
48203;SDS011;33994;50.998;5.864;2023-03-01T04:00:32;18.30;;;10.48;;
48203;SDS011;33994;50.998;5.864;2023-03-01T04:03:36;21.50;;;10.43;;
48203;SDS011;33994;50.998;5.864;2023-03-01T04:06:39;20.52;;;10.13;;
48203;SDS011;33994;50.998;5.864;2023-03-01T04:09:42;18.92;;;11.40;;
48203;SDS011;33994;50.998;5.864;2023-03-01T04:12:45;18.80;;;10.15;;
48203;SDS011;33994;50.998;5.864;2023-03-01T04:15:50;23.65;;;10.32;;
48203;SDS011;33994;50.998;5.864;2023-03-01T04:18:53;22.52;;;11.35;;
48203;SDS011;33994;50.998;5.864;2023-03-01T04:21:56;18.85;;;10.63;;
48203;SDS011;33994;50.998;5.864;2023-03-01T04:24:59;25.77;;;11.23;;
48203;SDS011;33994;50.998;5.864;2023-03-01T04:28:02;18.17;;;10.68;;
48203;SDS011;33994;50.998;5.864;2023-03-01T04:31:08;20.60;;;10.32;;
48203;SDS011;33994;50.998;5.864;2023-03-01T04:34:12;19.13;;;11.10;;
48203;SDS011;33994;50.998;5.864;2023-03-01T04:37:15;19.80;;;12.02;;
48203;SDS011;33994;50.998;5.864;2023-03-01T04:40:18;23.02;;;10.88;;
48203;SDS011;33994;50.998;5.864;2023-03-01T04:43:21;19.08;;;10.45;;
48203;SDS011;33994;50.998;5.864;2023-03-01T04:46:26;20.42;;;11.55;;
48203;SDS011;33994;50.998;5.864;2023-03-01T04:49:29;21.20;;;11.18;;
48203;SDS011;33994;50.998;5.864;2023-03-01T04:52:32;15.95;;;10.43;;
48203;SDS011;33994;50.998;5.864;2023-03-01T04:55:35;18.98;;;10.32;;
48203;SDS011;33994;50.998;5.864;2023-03-01T04:58:39;21.48;;;10.52;;
48203;SDS011;33994;50.998;5.864;2023-03-01T05:01:43;24.10;;;14.68;;
48203;SDS011;33994;50.998;5.864;2023-03-01T05:04:47;17.10;;;10.48;;
48203;SDS011;33994;50.998;5.864;2023-03-01T05:07:50;21.45;;;11.60;;
48203;SDS011;33994;50.998;5.864;2023-03-01T05:10:53;20.48;;;10.82;;
48203;SDS011;33994;50.998;5.864;2023-03-01T05:13:56;20.20;;;10.98;;
48203;SDS011;33994;50.998;5.864;2023-03-01T05:17:01;19.58;;;12.38;;
48203;SDS011;33994;50.998;5.864;2023-03-01T05:20:04;19.90;;;11.65;;
48203;SDS011;33994;50.998;5.864;2023-03-01T05:23:08;21.50;;;11.73;;
48203;SDS011;33994;50.998;5.864;2023-03-01T05:26:10;20.13;;;11.80;;
48203;SDS011;33994;50.998;5.864;2023-03-01T05:29:14;17.83;;;11.13;;
48203;SDS011;33994;50.998;5.864;2023-03-01T05:32:18;21.65;;;12.00;;
48203;SDS011;33994;50.998;5.864;2023-03-01T05:35:21;26.73;;;12.05;;
48203;SDS011;33994;50.998;5.864;2023-03-01T05:38:25;21.92;;;12.35;;
48203;SDS011;33994;50.998;5.864;2023-03-01T05:41:28;21.08;;;11.95;;
48203;SDS011;33994;50.998;5.864;2023-03-01T05:44:31;24.60;;;13.15;;
48203;SDS011;33994;50.998;5.864;2023-03-01T05:47:35;24.92;;;12.50;;
48203;SDS011;33994;50.998;5.864;2023-03-01T05:50:39;23.10;;;12.52;;
48203;SDS011;33994;50.998;5.864;2023-03-01T05:53:44;25.65;;;12.75;;
48203;SDS011;33994;50.998;5.864;2023-03-01T05:56:47;19.05;;;11.68;;
48203;SDS011;33994;50.998;5.864;2023-03-01T05:59:50;25.70;;;13.45;;
48203;SDS011;33994;50.998;5.864;2023-03-01T06:02:55;22.52;;;12.23;;
48203;SDS011;33994;50.998;5.864;2023-03-01T06:05:59;24.23;;;12.18;;
48203;SDS011;33994;50.998;5.864;2023-03-01T06:09:02;23.35;;;12.05;;
48203;SDS011;33994;50.998;5.864;2023-03-01T06:12:06;19.42;;;11.88;;
48203;SDS011;33994;50.998;5.864;2023-03-01T06:15:09;21.63;;;13.65;;
48203;SDS011;33994;50.998;5.864;2023-03-01T06:18:15;20.90;;;12.60;;
48203;SDS011;33994;50.998;5.864;2023-03-01T06:21:18;22.98;;;12.13;;
48203;SDS011;33994;50.998;5.864;2023-03-01T06:24:21;20.48;;;12.25;;
48203;SDS011;33994;50.998;5.864;2023-03-01T06:27:24;25.60;;;12.43;;
48203;SDS011;33994;50.998;5.864;2023-03-01T06:30:27;22.10;;;11.85;;
48203;SDS011;33994;50.998;5.864;2023-03-01T06:33:31;24.35;;;12.40;;
48203;SDS011;33994;50.998;5.864;2023-03-01T06:36:34;24.85;;;13.77;;
48203;SDS011;33994;50.998;5.864;2023-03-01T06:39:37;24.10;;;12.65;;
48203;SDS011;33994;50.998;5.864;2023-03-01T06:42:43;21.42;;;12.65;;
48203;SDS011;33994;50.998;5.864;2023-03-01T06:45:50;26.48;;;13.65;;
48203;SDS011;33994;50.998;5.864;2023-03-01T06:48:55;24.30;;;12.93;;
48203;SDS011;33994;50.998;5.864;2023-03-01T06:51:58;24.70;;;12.60;;
48203;SDS011;33994;50.998;5.864;2023-03-01T06:55:02;25.52;;;12.63;;
48203;SDS011;33994;50.998;5.864;2023-03-01T06:58:05;22.98;;;13.15;;
48203;SDS011;33994;50.998;5.864;2023-03-01T07:01:09;22.23;;;12.40;;
48203;SDS011;33994;50.998;5.864;2023-03-01T07:04:13;23.90;;;13.15;;
48203;SDS011;33994;50.998;5.864;2023-03-01T07:07:16;21.33;;;12.30;;
48203;SDS011;33994;50.998;5.864;2023-03-01T07:10:20;22.88;;;11.75;;
48203;SDS011;33994;50.998;5.864;2023-03-01T07:13:23;27.42;;;12.85;;
48203;SDS011;33994;50.998;5.864;2023-03-01T07:16:26;22.73;;;12.00;;
48203;SDS011;33994;50.998;5.864;2023-03-01T07:19:30;20.63;;;11.82;;
48203;SDS011;33994;50.998;5.864;2023-03-01T07:22:34;23.63;;;12.00;;
48203;SDS011;33994;50.998;5.864;2023-03-01T07:25:37;20.42;;;11.82;;
48203;SDS011;33994;50.998;5.864;2023-03-01T07:28:40;23.92;;;13.38;;
48203;SDS011;33994;50.998;5.864;2023-03-01T07:31:43;20.92;;;11.95;;
48203;SDS011;33994;50.998;5.864;2023-03-01T07:34:48;22.63;;;12.73;;
48203;SDS011;33994;50.998;5.864;2023-03-01T07:37:51;22.60;;;12.90;;
48203;SDS011;33994;50.998;5.864;2023-03-01T07:40:54;23.95;;;12.63;;
48203;SDS011;33994;50.998;5.864;2023-03-01T07:44:00;22.30;;;12.70;;
48203;SDS011;33994;50.998;5.864;2023-03-01T07:47:03;25.08;;;13.48;;
48203;SDS011;33994;50.998;5.864;2023-03-01T07:50:09;22.70;;;11.35;;
48203;SDS011;33994;50.998;5.864;2023-03-01T07:53:12;24.90;;;12.75;;
48203;SDS011;33994;50.998;5.864;2023-03-01T07:56:15;25.58;;;12.70;;
48203;SDS011;33994;50.998;5.864;2023-03-01T07:59:19;23.85;;;13.23;;
48203;SDS011;33994;50.998;5.864;2023-03-01T08:02:22;23.40;;;12.07;;
48203;SDS011;33994;50.998;5.864;2023-03-01T08:05:26;20.83;;;12.70;;
48203;SDS011;33994;50.998;5.864;2023-03-01T08:08:30;24.65;;;13.00;;
48203;SDS011;33994;50.998;5.864;2023-03-01T08:11:33;22.48;;;12.25;;
48203;SDS011;33994;50.998;5.864;2023-03-01T08:14:37;24.05;;;12.02;;
48203;SDS011;33994;50.998;5.864;2023-03-01T08:17:39;28.38;;;12.60;;
48203;SDS011;33994;50.998;5.864;2023-03-01T08:20:44;25.25;;;11.52;;
48203;SDS011;33994;50.998;5.864;2023-03-01T08:23:47;26.17;;;12.60;;
48203;SDS011;33994;50.998;5.864;2023-03-01T08:26:50;21.63;;;12.93;;
48203;SDS011;33994;50.998;5.864;2023-03-01T08:29:53;21.63;;;12.10;;
48203;SDS011;33994;50.998;5.864;2023-03-01T08:32:56;24.23;;;13.18;;
48203;SDS011;33994;50.998;5.864;2023-03-01T08:36:04;26.60;;;13.23;;
48203;SDS011;33994;50.998;5.864;2023-03-01T08:39:08;22.85;;;12.60;;
48203;SDS011;33994;50.998;5.864;2023-03-01T08:42:13;27.30;;;11.73;;
48203;SDS011;33994;50.998;5.864;2023-03-01T08:45:16;20.33;;;12.75;;
48203;SDS011;33994;50.998;5.864;2023-03-01T08:48:20;25.45;;;12.05;;
48203;SDS011;33994;50.998;5.864;2023-03-01T08:51:25;22.27;;;12.18;;
48203;SDS011;33994;50.998;5.864;2023-03-01T08:54:29;21.48;;;12.00;;
48203;SDS011;33994;50.998;5.864;2023-03-01T08:57:32;24.05;;;12.80;;
48203;SDS011;33994;50.998;5.864;2023-03-01T09:00:35;19.35;;;12.13;;
48203;SDS011;33994;50.998;5.864;2023-03-01T09:03:38;26.35;;;13.48;;
48203;SDS011;33994;50.998;5.864;2023-03-01T09:06:43;24.40;;;13.02;;
48203;SDS011;33994;50.998;5.864;2023-03-01T09:09:46;20.48;;;12.50;;
48203;SDS011;33994;50.998;5.864;2023-03-01T09:12:49;22.63;;;11.82;;
48203;SDS011;33994;50.998;5.864;2023-03-01T09:15:52;23.77;;;12.75;;
48203;SDS011;33994;50.998;5.864;2023-03-01T09:18:55;24.42;;;12.95;;
48203;SDS011;33994;50.998;5.864;2023-03-01T09:22:00;22.88;;;12.38;;
48203;SDS011;33994;50.998;5.864;2023-03-01T09:25:03;20.30;;;11.93;;
48203;SDS011;33994;50.998;5.864;2023-03-01T09:28:07;25.98;;;13.65;;
48203;SDS011;33994;50.998;5.864;2023-03-01T09:31:10;24.73;;;12.85;;
48203;SDS011;33994;50.998;5.864;2023-03-01T09:34:13;27.35;;;13.13;;
48203;SDS011;33994;50.998;5.864;2023-03-01T09:37:18;24.35;;;12.55;;
48203;SDS011;33994;50.998;5.864;2023-03-01T09:40:21;25.55;;;12.75;;
48203;SDS011;33994;50.998;5.864;2023-03-01T09:43:31;28.58;;;14.18;;
48203;SDS011;33994;50.998;5.864;2023-03-01T09:46:44;24.92;;;12.70;;
48203;SDS011;33994;50.998;5.864;2023-03-01T09:49:51;24.73;;;13.05;;
48203;SDS011;33994;50.998;5.864;2023-03-01T09:53:03;32.80;;;13.73;;
48203;SDS011;33994;50.998;5.864;2023-03-01T09:56:12;25.92;;;12.25;;
48203;SDS011;33994;50.998;5.864;2023-03-01T09:59:22;24.73;;;12.88;;
48203;SDS011;33994;50.998;5.864;2023-03-01T10:02:32;25.25;;;13.40;;
48203;SDS011;33994;50.998;5.864;2023-03-01T10:05:44;24.13;;;12.50;;
48203;SDS011;33994;50.998;5.864;2023-03-01T10:08:54;21.27;;;12.52;;
48203;SDS011;33994;50.998;5.864;2023-03-01T10:12:01;23.48;;;12.85;;
48203;SDS011;33994;50.998;5.864;2023-03-01T10:15:09;24.98;;;13.25;;
48203;SDS011;33994;50.998;5.864;2023-03-01T10:18:16;22.38;;;13.23;;
48203;SDS011;33994;50.998;5.864;2023-03-01T10:21:23;21.85;;;12.88;;
48203;SDS011;33994;50.998;5.864;2023-03-01T10:24:30;26.02;;;13.00;;
48203;SDS011;33994;50.998;5.864;2023-03-01T10:27:37;26.37;;;12.90;;
48203;SDS011;33994;50.998;5.864;2023-03-01T10:30:47;23.60;;;13.10;;
48203;SDS011;33994;50.998;5.864;2023-03-01T10:33:50;20.70;;;11.85;;
48203;SDS011;33994;50.998;5.864;2023-03-01T10:36:55;25.95;;;13.40;;
48203;SDS011;33994;50.998;5.864;2023-03-01T10:40:03;25.17;;;13.80;;
48203;SDS011;33994;50.998;5.864;2023-03-01T10:43:10;27.45;;;13.48;;
48203;SDS011;33994;50.998;5.864;2023-03-01T10:46:25;25.88;;;13.13;;
48203;SDS011;33994;50.998;5.864;2023-03-01T10:49:29;26.27;;;14.18;;
48203;SDS011;33994;50.998;5.864;2023-03-01T10:52:34;27.73;;;13.13;;
48203;SDS011;33994;50.998;5.864;2023-03-01T10:55:40;26.83;;;13.88;;
48203;SDS011;33994;50.998;5.864;2023-03-01T10:58:57;19.95;;;12.50;;
48203;SDS011;33994;50.998;5.864;2023-03-01T11:02:02;25.35;;;13.68;;
48203;SDS011;33994;50.998;5.864;2023-03-01T11:05:18;25.85;;;13.32;;
48203;SDS011;33994;50.998;5.864;2023-03-01T11:11:48;27.40;;;13.77;;
48203;SDS011;33994;50.998;5.864;2023-03-01T11:14:55;26.73;;;14.25;;
48203;SDS011;33994;50.998;5.864;2023-03-01T11:17:59;26.13;;;14.73;;
48203;SDS011;33994;50.998;5.864;2023-03-01T11:21:03;24.33;;;13.98;;
48203;SDS011;33994;50.998;5.864;2023-03-01T11:24:10;28.35;;;13.65;;
48203;SDS011;33994;50.998;5.864;2023-03-01T11:27:18;30.58;;;14.68;;
48203;SDS011;33994;50.998;5.864;2023-03-01T11:30:25;28.42;;;14.23;;
48203;SDS011;33994;50.998;5.864;2023-03-01T11:33:33;28.48;;;14.55;;
48203;SDS011;33994;50.998;5.864;2023-03-01T11:36:40;22.42;;;12.23;;
48203;SDS011;33994;50.998;5.864;2023-03-01T11:39:49;30.00;;;13.27;;
48203;SDS011;33994;50.998;5.864;2023-03-01T11:43:08;25.17;;;12.40;;
48203;SDS011;33994;50.998;5.864;2023-03-01T11:50:06;24.70;;;13.02;;
48203;SDS011;33994;50.998;5.864;2023-03-01T11:53:34;24.33;;;12.63;;
48203;SDS011;33994;50.998;5.864;2023-03-01T11:56:53;26.77;;;12.98;;
48203;SDS011;33994;50.998;5.864;2023-03-01T12:00:10;23.02;;;12.15;;
48203;SDS011;33994;50.998;5.864;2023-03-01T12:03:28;24.02;;;13.25;;
48203;SDS011;33994;50.998;5.864;2023-03-01T12:06:39;21.02;;;12.27;;
48203;SDS011;33994;50.998;5.864;2023-03-01T12:13:27;29.23;;;13.50;;
48203;SDS011;33994;50.998;5.864;2023-03-01T12:20:22;25.15;;;12.85;;
48203;SDS011;33994;50.998;5.864;2023-03-01T12:23:39;27.05;;;12.57;;
48203;SDS011;33994;50.998;5.864;2023-03-01T12:27:11;22.88;;;12.57;;
48203;SDS011;33994;50.998;5.864;2023-03-01T12:30:35;21.27;;;11.90;;
48203;SDS011;33994;50.998;5.864;2023-03-01T12:33:51;23.55;;;11.82;;
48203;SDS011;33994;50.998;5.864;2023-03-01T12:37:09;24.17;;;11.75;;
48203;SDS011;33994;50.998;5.864;2023-03-01T12:40:33;24.05;;;12.63;;
48203;SDS011;33994;50.998;5.864;2023-03-01T12:43:49;26.08;;;12.05;;
48203;SDS011;33994;50.998;5.864;2023-03-01T12:47:05;23.30;;;12.77;;
48203;SDS011;33994;50.998;5.864;2023-03-01T12:50:18;25.67;;;12.88;;
48203;SDS011;33994;50.998;5.864;2023-03-01T12:53:24;22.27;;;12.27;;
48203;SDS011;33994;50.998;5.864;2023-03-01T12:56:30;25.42;;;12.30;;
48203;SDS011;33994;50.998;5.864;2023-03-01T12:59:36;25.45;;;12.50;;
48203;SDS011;33994;50.998;5.864;2023-03-01T13:02:44;23.35;;;11.65;;
48203;SDS011;33994;50.998;5.864;2023-03-01T13:05:59;22.90;;;12.02;;
48203;SDS011;33994;50.998;5.864;2023-03-01T13:09:13;22.60;;;12.20;;
48203;SDS011;33994;50.998;5.864;2023-03-01T13:15:54;20.67;;;11.70;;
48203;SDS011;33994;50.998;5.864;2023-03-01T13:19:06;21.25;;;12.05;;
48203;SDS011;33994;50.998;5.864;2023-03-01T13:22:28;20.20;;;11.23;;
48203;SDS011;33994;50.998;5.864;2023-03-01T13:25:33;21.17;;;11.95;;
48203;SDS011;33994;50.998;5.864;2023-03-01T13:28:41;21.85;;;11.10;;
48203;SDS011;33994;50.998;5.864;2023-03-01T13:35:01;18.38;;;10.90;;
48203;SDS011;33994;50.998;5.864;2023-03-01T13:41:48;19.88;;;11.52;;
48203;SDS011;33994;50.998;5.864;2023-03-01T13:44:53;21.75;;;11.30;;
48203;SDS011;33994;50.998;5.864;2023-03-01T13:50:45;18.10;;;10.00;;
48203;SDS011;33994;50.998;5.864;2023-03-01T13:54:37;15.80;;;9.90;;
48203;SDS011;33994;50.998;5.864;2023-03-01T13:57:43;16.45;;;9.32;;
48203;SDS011;33994;50.998;5.864;2023-03-01T14:00:54;18.07;;;9.53;;
48203;SDS011;33994;50.998;5.864;2023-03-01T14:03:59;17.83;;;10.35;;
48203;SDS011;33994;50.998;5.864;2023-03-01T14:07:09;16.85;;;9.93;;
48203;SDS011;33994;50.998;5.864;2023-03-01T14:10:15;21.13;;;10.30;;
48203;SDS011;33994;50.998;5.864;2023-03-01T14:13:23;21.75;;;10.10;;
48203;SDS011;33994;50.998;5.864;2023-03-01T14:16:37;18.30;;;9.75;;
48203;SDS011;33994;50.998;5.864;2023-03-01T14:19:54;17.83;;;9.27;;
48203;SDS011;33994;50.998;5.864;2023-03-01T14:22:59;25.60;;;10.02;;
48203;SDS011;33994;50.998;5.864;2023-03-01T14:26:07;17.35;;;8.23;;
48203;SDS011;33994;50.998;5.864;2023-03-01T14:32:31;19.33;;;9.52;;
48203;SDS011;33994;50.998;5.864;2023-03-01T14:35:35;18.05;;;9.18;;
48203;SDS011;33994;50.998;5.864;2023-03-01T14:38:39;17.20;;;8.93;;
48203;SDS011;33994;50.998;5.864;2023-03-01T14:41:45;14.57;;;7.63;;
48203;SDS011;33994;50.998;5.864;2023-03-01T14:44:49;14.13;;;8.52;;
48203;SDS011;33994;50.998;5.864;2023-03-01T14:47:54;14.48;;;7.38;;
48203;SDS011;33994;50.998;5.864;2023-03-01T14:50:57;15.30;;;7.05;;
48203;SDS011;33994;50.998;5.864;2023-03-01T14:54:01;12.88;;;7.38;;
48203;SDS011;33994;50.998;5.864;2023-03-01T14:57:05;13.32;;;7.45;;
48203;SDS011;33994;50.998;5.864;2023-03-01T15:00:18;14.00;;;6.90;;
48203;SDS011;33994;50.998;5.864;2023-03-01T15:03:24;14.13;;;7.25;;
48203;SDS011;33994;50.998;5.864;2023-03-01T15:06:33;14.05;;;6.38;;
48203;SDS011;33994;50.998;5.864;2023-03-01T15:09:37;12.48;;;6.93;;
48203;SDS011;33994;50.998;5.864;2023-03-01T15:12:43;15.23;;;7.20;;
48203;SDS011;33994;50.998;5.864;2023-03-01T15:15:46;12.70;;;7.53;;
48203;SDS011;33994;50.998;5.864;2023-03-01T15:18:51;11.43;;;7.07;;
48203;SDS011;33994;50.998;5.864;2023-03-01T15:21:56;14.15;;;7.57;;
48203;SDS011;33994;50.998;5.864;2023-03-01T15:25:00;12.85;;;7.40;;
48203;SDS011;33994;50.998;5.864;2023-03-01T15:28:04;10.35;;;6.75;;
48203;SDS011;33994;50.998;5.864;2023-03-01T15:31:12;12.13;;;7.68;;
48203;SDS011;33994;50.998;5.864;2023-03-01T15:34:23;12.27;;;7.45;;
48203;SDS011;33994;50.998;5.864;2023-03-01T15:37:36;16.65;;;8.35;;
48203;SDS011;33994;50.998;5.864;2023-03-01T15:40:48;14.05;;;8.30;;
48203;SDS011;33994;50.998;5.864;2023-03-01T15:43:53;19.88;;;7.43;;
48203;SDS011;33994;50.998;5.864;2023-03-01T15:46:57;15.35;;;7.93;;
48203;SDS011;33994;50.998;5.864;2023-03-01T15:50:00;16.30;;;7.88;;
48203;SDS011;33994;50.998;5.864;2023-03-01T15:53:05;11.88;;;7.53;;
48203;SDS011;33994;50.998;5.864;2023-03-01T15:56:10;14.60;;;7.43;;
48203;SDS011;33994;50.998;5.864;2023-03-01T15:59:15;14.13;;;7.85;;
48203;SDS011;33994;50.998;5.864;2023-03-01T16:02:18;18.05;;;7.05;;
48203;SDS011;33994;50.998;5.864;2023-03-01T16:05:22;12.75;;;7.30;;
48203;SDS011;33994;50.998;5.864;2023-03-01T16:08:27;13.13;;;7.63;;
48203;SDS011;33994;50.998;5.864;2023-03-01T16:11:30;15.85;;;7.60;;
48203;SDS011;33994;50.998;5.864;2023-03-01T16:14:35;13.43;;;6.85;;
48203;SDS011;33994;50.998;5.864;2023-03-01T16:17:38;14.50;;;7.82;;
48203;SDS011;33994;50.998;5.864;2023-03-01T16:20:41;15.18;;;7.97;;
48203;SDS011;33994;50.998;5.864;2023-03-01T16:23:45;14.45;;;6.95;;
48203;SDS011;33994;50.998;5.864;2023-03-01T16:26:48;12.75;;;7.35;;
48203;SDS011;33994;50.998;5.864;2023-03-01T16:29:52;13.27;;;6.70;;
48203;SDS011;33994;50.998;5.864;2023-03-01T16:32:56;14.93;;;7.13;;
48203;SDS011;33994;50.998;5.864;2023-03-01T16:35:59;14.10;;;7.63;;
48203;SDS011;33994;50.998;5.864;2023-03-01T16:39:02;15.93;;;7.22;;
48203;SDS011;33994;50.998;5.864;2023-03-01T16:42:06;14.32;;;6.95;;
48203;SDS011;33994;50.998;5.864;2023-03-01T16:45:10;15.20;;;7.03;;
48203;SDS011;33994;50.998;5.864;2023-03-01T16:48:14;13.95;;;7.75;;
48203;SDS011;33994;50.998;5.864;2023-03-01T16:51:17;14.02;;;7.18;;
48203;SDS011;33994;50.998;5.864;2023-03-01T16:54:21;13.90;;;8.05;;
48203;SDS011;33994;50.998;5.864;2023-03-01T16:57:24;15.48;;;7.88;;
48203;SDS011;33994;50.998;5.864;2023-03-01T17:00:28;15.48;;;7.30;;
48203;SDS011;33994;50.998;5.864;2023-03-01T17:03:31;14.18;;;8.00;;
48203;SDS011;33994;50.998;5.864;2023-03-01T17:06:34;15.05;;;8.18;;
48203;SDS011;33994;50.998;5.864;2023-03-01T17:09:38;17.23;;;7.68;;
48203;SDS011;33994;50.998;5.864;2023-03-01T17:12:41;15.82;;;8.35;;
48203;SDS011;33994;50.998;5.864;2023-03-01T17:15:45;13.75;;;7.93;;
48203;SDS011;33994;50.998;5.864;2023-03-01T17:18:48;16.33;;;8.18;;
48203;SDS011;33994;50.998;5.864;2023-03-01T17:21:51;14.85;;;7.53;;
48203;SDS011;33994;50.998;5.864;2023-03-01T17:24:54;16.08;;;8.20;;
48203;SDS011;33994;50.998;5.864;2023-03-01T17:27:57;14.93;;;8.75;;
48203;SDS011;33994;50.998;5.864;2023-03-01T17:31:02;16.98;;;7.85;;
48203;SDS011;33994;50.998;5.864;2023-03-01T17:34:07;14.30;;;7.78;;
48203;SDS011;33994;50.998;5.864;2023-03-01T17:37:10;14.30;;;8.43;;
48203;SDS011;33994;50.998;5.864;2023-03-01T17:40:13;17.80;;;8.20;;
48203;SDS011;33994;50.998;5.864;2023-03-01T17:43:16;16.88;;;8.75;;
48203;SDS011;33994;50.998;5.864;2023-03-01T17:46:21;13.98;;;8.27;;
48203;SDS011;33994;50.998;5.864;2023-03-01T17:49:24;21.42;;;8.38;;
48203;SDS011;33994;50.998;5.864;2023-03-01T17:52:27;16.35;;;8.20;;
48203;SDS011;33994;50.998;5.864;2023-03-01T17:55:30;13.07;;;7.32;;
48203;SDS011;33994;50.998;5.864;2023-03-01T17:58:34;14.05;;;7.53;;
48203;SDS011;33994;50.998;5.864;2023-03-01T18:01:39;22.50;;;8.20;;
48203;SDS011;33994;50.998;5.864;2023-03-01T18:04:42;17.80;;;8.23;;
48203;SDS011;33994;50.998;5.864;2023-03-01T18:07:45;21.48;;;9.60;;
48203;SDS011;33994;50.998;5.864;2023-03-01T18:10:48;22.17;;;8.98;;
48203;SDS011;33994;50.998;5.864;2023-03-01T18:14:00;22.08;;;10.35;;
48203;SDS011;33994;50.998;5.864;2023-03-01T18:17:04;17.45;;;10.02;;
48203;SDS011;33994;50.998;5.864;2023-03-01T18:20:08;21.08;;;10.98;;
48203;SDS011;33994;50.998;5.864;2023-03-01T18:23:12;23.23;;;11.85;;
48203;SDS011;33994;50.998;5.864;2023-03-01T18:26:15;29.95;;;11.63;;
48203;SDS011;33994;50.998;5.864;2023-03-01T18:29:18;23.58;;;10.60;;
48203;SDS011;33994;50.998;5.864;2023-03-01T18:32:22;20.83;;;10.82;;
48203;SDS011;33994;50.998;5.864;2023-03-01T18:35:26;17.58;;;9.40;;
48203;SDS011;33994;50.998;5.864;2023-03-01T18:38:29;19.38;;;8.88;;
48203;SDS011;33994;50.998;5.864;2023-03-01T18:41:32;16.80;;;9.00;;
48203;SDS011;33994;50.998;5.864;2023-03-01T18:44:35;21.40;;;8.38;;